Time;durP1;ratioP1;P1;durP2;ratioP2;P2;SDS_P1;SDS_P2;PMS_P1;PMS_P2;Temp;Humidity;BMP_temperature;BMP_pressure;BME280_temperature;BME280_humidity;BME280_pressure;Samples;Min_cycle;Max_cycle;Signal;HPM_P1;HPM_P2
2022/07/17 00:02:21;;;;;;;0.70;0.60;;;17.40;83.20;;;;;;5075380;28;20445;-83
2022/07/17 00:04:49;;;;;;;0.70;0.70;;;17.40;83.50;;;;;;5075651;28;20452;-83
2022/07/17 00:07:16;;;;;;;0.60;0.60;;;17.30;83.30;;;;;;5075497;28;20448;-83
2022/07/17 00:09:42;;;;;;;1.53;0.90;;;17.30;83.60;;;;;;5075591;28;21000;-83
2022/07/17 00:12:09;;;;;;;1.23;0.70;;;17.30;83.90;;;;;;5075217;28;20451;-83
2022/07/17 00:14:36;;;;;;;0.87;0.80;;;17.30;83.80;;;;;;5074307;28;20448;-83
2022/07/17 00:17:03;;;;;;;0.50;0.50;;;17.30;83.50;;;;;;5075406;28;20456;-83
2022/07/17 00:19:30;;;;;;;1.10;0.83;;;17.20;83.60;;;;;;5075229;28;20568;-83
2022/07/17 00:21:58;;;;;;;1.57;0.90;;;17.20;83.90;;;;;;5075310;28;20448;-82
2022/07/17 00:24:25;;;;;;;1.17;1.03;;;17.20;83.60;;;;;;5074966;28;20449;-83
2022/07/17 00:26:52;;;;;;;0.90;0.90;;;17.20;83.20;;;;;;5075219;28;20448;-83
2022/07/17 00:29:19;;;;;;;0.67;0.67;;;17.20;83.00;;;;;;5074795;28;20469;-82
2022/07/17 00:31:46;;;;;;;2.30;1.13;;;17.10;83.30;;;;;;5074809;28;20449;-83
2022/07/17 00:34:13;;;;;;;1.07;0.93;;;17.10;84.10;;;;;;5075133;28;20476;-83
2022/07/17 00:36:41;;;;;;;2.43;1.23;;;17.10;84.00;;;;;;5075010;28;20445;-83
2022/07/17 00:39:09;;;;;;;0.73;0.70;;;17.00;84.20;;;;;;5074611;28;20492;-83
2022/07/17 00:41:36;;;;;;;1.13;0.73;;;17.00;84.80;;;;;;5074908;28;20445;-81
2022/07/17 00:44:07;;;;;;;1.30;0.90;;;16.90;85.00;;;;;;5074518;28;20962;-80
2022/07/17 00:46:34;;;;;;;1.73;0.80;;;16.90;85.10;;;;;;5074792;28;20445;-80
2022/07/17 00:49:01;;;;;;;1.80;0.90;;;16.80;85.30;;;;;;5074706;28;20476;-80
2022/07/17 00:51:28;;;;;;;1.40;1.30;;;16.80;85.40;;;;;;5074361;28;20460;-80
2022/07/17 00:53:56;;;;;;;1.93;0.70;;;16.70;85.30;;;;;;5074366;28;20519;-80
2022/07/17 00:56:24;;;;;;;0.60;0.60;;;16.70;85.70;;;;;;5074592;28;20453;-80
2022/07/17 00:58:52;;;;;;;0.97;0.73;;;16.70;86.40;;;;;;5074500;28;20540;-80
2022/07/17 01:01:19;;;;;;;0.63;0.63;;;16.60;85.90;;;;;;5074495;28;20445;-80
2022/07/17 01:03:46;;;;;;;1.07;1.03;;;16.60;86.40;;;;;;5074169;28;20963;-80
2022/07/17 01:06:13;;;;;;;1.23;0.70;;;16.50;86.50;;;;;;5074381;28;20452;-80
2022/07/17 01:08:40;;;;;;;1.70;0.80;;;16.50;86.80;;;;;;5074281;28;20464;-80
2022/07/17 01:11:09;;;;;;;1.80;1.00;;;16.50;87.30;;;;;;5074293;28;20444;-80
2022/07/17 01:13:37;;;;;;;0.90;0.90;;;16.40;86.80;;;;;;5073889;28;20819;-80
2022/07/17 01:16:04;;;;;;;0.70;0.63;;;16.40;86.90;;;;;;5074244;28;20498;-80
2022/07/17 01:18:31;;;;;;;0.50;0.50;;;16.30;87.00;;;;;;5074117;28;20469;-80
2022/07/17 01:21:05;;;;;;;1.07;0.87;;;16.30;87.30;;;;;;5074024;28;20483;-80
2022/07/17 01:23:32;;;;;;;0.90;0.70;;;16.30;88.00;;;;;;5073837;28;20909;-80
2022/07/17 01:25:58;;;;;;;0.63;0.63;;;16.30;88.00;;;;;;5073429;28;20945;-80
2022/07/17 01:28:25;;;;;;;0.87;0.50;;;16.20;87.90;;;;;;5073623;28;20491;-80
2022/07/17 01:30:53;;;;;;;0.83;0.70;;;16.20;88.10;;;;;;5073650;28;20436;-80
2022/07/17 01:33:20;;;;;;;1.43;1.23;;;16.10;87.70;;;;;;5073610;28;20924;-80
2022/07/17 01:35:47;;;;;;;0.70;0.70;;;16.10;87.80;;;;;;5073820;28;20456;-80
2022/07/17 01:38:15;;;;;;;0.60;0.60;;;16.10;88.00;;;;;;5073400;28;20484;-80
2022/07/17 01:40:42;;;;;;;1.50;1.03;;;16.10;88.50;;;;;;5073695;28;20483;-80
2022/07/17 01:43:09;;;;;;;0.77;0.77;;;16.00;88.40;;;;;;5073545;28;20444;-80
2022/07/17 01:45:36;;;;;;;1.07;0.70;;;16.00;89.00;;;;;;5073710;28;20452;-80
2022/07/17 01:48:03;;;;;;;1.00;0.80;;;16.00;88.70;;;;;;5073322;28;21000;-80
2022/07/17 01:50:29;;;;;;;0.70;0.70;;;16.00;89.10;;;;;;5073643;28;20457;-80
2022/07/17 01:52:56;;;;;;;0.40;0.40;;;15.90;89.50;;;;;;5073603;28;20444;-80
2022/07/17 01:55:24;;;;;;;1.57;0.80;;;15.90;89.80;;;;;;5073285;28;20445;-80
2022/07/17 01:57:51;;;;;;;2.23;0.70;;;15.90;90.00;;;;;;5073484;28;20484;-80
2022/07/17 02:00:20;;;;;;;1.20;1.10;;;15.90;90.10;;;;;;5073484;28;20581;-80
2022/07/17 02:02:47;;;;;;;0.90;0.90;;;15.80;90.00;;;;;;5073531;28;20452;-80
2022/07/17 02:05:14;;;;;;;0.80;0.77;;;15.80;90.10;;;;;;5073450;28;20448;-80
2022/07/17 02:07:40;;;;;;;0.73;0.73;;;15.80;90.20;;;;;;5073411;28;20472;-80
2022/07/17 02:10:09;;;;;;;1.43;1.17;;;15.80;90.20;;;;;;5073437;28;20763;-80
2022/07/17 02:12:37;;;;;;;2.20;1.53;;;15.70;90.30;;;;;;5073394;28;20586;-80
2022/07/17 02:15:05;;;;;;;0.60;0.60;;;15.70;90.60;;;;;;5073046;28;20829;-80
2022/07/17 02:17:32;;;;;;;1.43;0.80;;;15.70;90.70;;;;;;5073340;28;20487;-80
2022/07/17 02:19:58;;;;;;;0.97;0.73;;;15.70;90.70;;;;;;5073269;28;20504;-80
2022/07/17 02:22:25;;;;;;;1.37;0.70;;;15.70;90.90;;;;;;5073299;28;20449;-80
2022/07/17 02:24:52;;;;;;;0.80;0.80;;;15.60;90.90;;;;;;5073307;28;20460;-80
2022/07/17 02:27:18;;;;;;;1.13;0.83;;;15.60;91.00;;;;;;5072895;28;20970;-80
2022/07/17 02:29:47;;;;;;;0.63;0.63;;;15.60;90.90;;;;;;5073263;28;20440;-80
2022/07/17 02:32:13;;;;;;;1.43;0.80;;;15.60;91.00;;;;;;5073227;28;20456;-80
2022/07/17 02:34:40;;;;;;;0.70;0.70;;;15.60;90.70;;;;;;5072834;28;20936;-80
2022/07/17 02:37:07;;;;;;;0.80;0.60;;;15.60;90.90;;;;;;5073868;28;20512;-80
2022/07/17 02:39:34;;;;;;;2.77;0.70;;;15.60;91.00;;;;;;5077114;28;20472;-80
2022/07/17 02:42:00;;;;;;;0.83;0.83;;;15.50;91.10;;;;;;5076876;28;20970;-80
2022/07/17 02:44:27;;;;;;;3.23;0.93;;;15.50;91.50;;;;;;5077144;28;20448;-80
2022/07/17 02:46:55;;;;;;;0.57;0.53;;;15.60;91.40;;;;;;5077788;28;20470;-80
2022/07/17 02:49:22;;;;;;;2.87;1.53;;;15.60;91.40;;;;;;5076998;28;20463;-80
2022/07/17 02:51:49;;;;;;;2.60;1.33;;;15.50;91.40;;;;;;5076711;28;20447;-80
2022/07/17 02:54:15;;;;;;;2.10;1.53;;;15.50;91.60;;;;;;5077001;28;20444;-80
2022/07/17 02:56:42;;;;;;;4.67;1.13;;;15.50;91.70;;;;;;5076616;28;20469;-80
2022/07/17 02:59:09;;;;;;;1.07;0.80;;;15.50;92.00;;;;;;5076482;28;20469;-80
2022/07/17 03:01:36;;;;;;;1.23;0.80;;;15.50;92.10;;;;;;5076744;28;20491;-80
2022/07/17 03:04:04;;;;;;;0.60;0.60;;;15.50;92.10;;;;;;5076481;28;20820;-80
2022/07/17 03:06:31;;;;;;;0.70;0.70;;;15.50;91.80;;;;;;5076705;28;20448;-80
2022/07/17 03:08:57;;;;;;;1.73;0.90;;;15.40;91.90;;;;;;5076294;28;20984;-80
2022/07/17 03:11:24;;;;;;;0.70;0.50;;;15.40;92.00;;;;;;5076610;28;20447;-80
2022/07/17 03:13:51;;;;;;;1.50;1.10;;;15.40;92.10;;;;;;5076872;28;20433;-80
2022/07/17 03:16:17;;;;;;;1.57;0.80;;;15.40;92.30;;;;;;5076537;28;20456;-80
2022/07/17 03:18:44;;;;;;;1.83;0.97;;;15.30;92.10;;;;;;5076414;28;20488;-80
2022/07/17 03:21:12;;;;;;;1.27;0.73;;;15.30;92.40;;;;;;5076045;28;20488;-79
2022/07/17 03:23:39;;;;;;;1.27;1.27;;;15.30;92.40;;;;;;5076369;28;20452;-80
2022/07/17 03:26:06;;;;;;;1.10;1.00;;;15.30;92.50;;;;;;5076358;28;20472;-80
2022/07/17 03:28:33;;;;;;;1.10;1.00;;;15.20;92.40;;;;;;5075930;28;20472;-80
2022/07/17 03:30:59;;;;;;;1.40;0.80;;;15.20;92.30;;;;;;5076231;28;20448;-80
2022/07/17 03:33:26;;;;;;;0.67;0.67;;;15.10;92.70;;;;;;5076244;28;20444;-80
2022/07/17 03:35:53;;;;;;;0.60;0.60;;;15.10;92.90;;;;;;5075941;28;20460;-79
2022/07/17 03:38:21;;;;;;;1.70;1.20;;;15.10;92.80;;;;;;5075687;28;20480;-80
2022/07/17 03:40:48;;;;;;;1.43;0.63;;;15.10;93.00;;;;;;5075991;28;20488;-80
2022/07/17 03:43:15;;;;;;;3.20;0.93;;;15.00;93.00;;;;;;5076084;28;20536;-80
2022/07/17 03:45:42;;;;;;;0.60;0.50;;;15.00;93.10;;;;;;5075722;28;20451;-80
2022/07/17 03:48:10;;;;;;;0.60;0.60;;;14.90;93.30;;;;;;5075746;28;20465;-80
2022/07/17 03:50:37;;;;;;;1.00;1.00;;;14.90;93.30;;;;;;5075895;28;20464;-80
2022/07/17 03:53:03;;;;;;;2.40;0.90;;;14.90;93.50;;;;;;5075622;28;20948;-79
2022/07/17 03:55:31;;;;;;;1.27;0.80;;;14.90;93.60;;;;;;5075552;28;20433;-80
2022/07/17 03:57:58;;;;;;;2.93;0.93;;;14.90;93.60;;;;;;5075720;28;20473;-81
2022/07/17 04:00:25;;;;;;;1.87;1.30;;;14.90;93.60;;;;;;5075699;28;20481;-81
2022/07/17 04:02:52;;;;;;;1.23;1.13;;;14.90;93.40;;;;;;5075474;28;20429;-81
2022/07/17 04:05:19;;;;;;;0.63;0.63;;;14.90;93.40;;;;;;5075663;28;20455;-80
2022/07/17 04:07:46;;;;;;;0.60;0.60;;;15.00;93.40;;;;;;5075225;28;20469;-80
2022/07/17 04:10:15;;;;;;;0.77;0.77;;;15.00;93.50;;;;;;5075560;28;20495;-80
2022/07/17 04:12:43;;;;;;;1.13;0.67;;;15.00;93.70;;;;;;5075549;28;20457;-81
2022/07/17 04:15:11;;;;;;;1.20;1.10;;;15.00;93.80;;;;;;5075457;28;20448;-80
2022/07/17 04:17:37;;;;;;;1.07;0.97;;;15.00;93.50;;;;;;5075350;28;20476;-81
2022/07/17 04:20:05;;;;;;;1.23;0.60;;;15.00;93.60;;;;;;5075295;28;20443;-81
2022/07/17 04:22:32;;;;;;;1.00;0.90;;;15.00;93.70;;;;;;5075311;28;20445;-80
2022/07/17 04:24:58;;;;;;;0.83;0.83;;;15.10;94.10;;;;;;5075283;28;20453;-80
2022/07/17 04:27:25;;;;;;;0.70;0.70;;;15.10;94.20;;;;;;5074869;28;20966;-80
2022/07/17 04:29:53;;;;;;;1.10;1.10;;;15.10;94.20;;;;;;5075211;28;20433;-81
2022/07/17 04:32:20;;;;;;;2.47;0.70;;;15.10;94.40;;;;;;5075106;28;20444;-81
2022/07/17 04:34:46;;;;;;;2.10;0.97;;;15.20;94.50;;;;;;5074762;28;20967;-81
2022/07/17 04:37:14;;;;;;;0.77;0.77;;;15.20;94.40;;;;;;5074698;28;20484;-81
2022/07/17 04:39:41;;;;;;;1.17;0.80;;;15.20;94.40;;;;;;5074937;28;20459;-81
2022/07/17 04:42:07;;;;;;;0.97;0.70;;;15.30;94.60;;;;;;5074519;28;21017;-81
2022/07/17 04:44:34;;;;;;;0.70;0.70;;;15.30;94.40;;;;;;5074685;28;20433;-80
2022/07/17 04:47:02;;;;;;;1.63;0.80;;;15.40;94.50;;;;;;5074800;28;20451;-81
2022/07/17 04:49:29;;;;;;;1.20;0.97;;;15.40;94.60;;;;;;5074731;28;20469;-81
2022/07/17 04:51:55;;;;;;;1.20;0.70;;;15.40;94.90;;;;;;5074425;28;20828;-80
2022/07/17 04:54:22;;;;;;;0.70;0.70;;;15.40;94.90;;;;;;5074697;28;20440;-80
2022/07/17 04:56:50;;;;;;;1.87;0.90;;;15.50;95.10;;;;;;5074610;28;20480;-80
2022/07/17 04:59:16;;;;;;;2.93;1.00;;;15.50;95.20;;;;;;5074229;28;20824;-80
2022/07/17 05:01:43;;;;;;;1.33;0.60;;;15.60;95.30;;;;;;5073867;28;21035;-80
2022/07/17 05:04:11;;;;;;;1.77;1.03;;;15.60;95.30;;;;;;5074175;28;21024;-81
2022/07/17 05:06:38;;;;;;;1.60;1.10;;;15.60;95.20;;;;;;5074445;28;20809;-81
2022/07/17 05:09:05;;;;;;;1.23;0.90;;;15.70;95.50;;;;;;5074330;28;20480;-81
2022/07/17 05:11:31;;;;;;;0.53;0.53;;;15.80;95.50;;;;;;5074294;28;20452;-81
2022/07/17 05:13:58;;;;;;;1.80;0.70;;;15.80;95.50;;;;;;5073958;28;20449;-81
2022/07/17 05:16:25;;;;;;;1.87;1.27;;;15.90;95.20;;;;;;5073912;28;20936;-81
2022/07/17 05:18:52;;;;;;;0.70;0.70;;;15.90;94.90;;;;;;5074312;28;20457;-81
2022/07/17 05:21:20;;;;;;;1.80;0.77;;;15.90;95.00;;;;;;5074041;28;20579;-81
2022/07/17 05:23:47;;;;;;;0.80;0.80;;;16.00;95.10;;;;;;5074116;28;20448;-81
2022/07/17 05:26:14;;;;;;;0.80;0.73;;;16.10;95.10;;;;;;5074031;28;20453;-81
2022/07/17 05:28:40;;;;;;;0.87;0.83;;;16.10;95.00;;;;;;5073939;28;20491;-81
2022/07/17 05:31:07;;;;;;;0.97;0.80;;;16.20;95.30;;;;;;5073727;28;20546;-81
2022/07/17 05:33:34;;;;;;;0.90;0.90;;;16.30;95.50;;;;;;5074595;28;20457;-81
2022/07/17 05:36:01;;;;;;;1.00;0.90;;;16.30;95.20;;;;;;5073846;28;20453;-81
2022/07/17 05:38:29;;;;;;;1.10;1.10;;;16.40;94.30;;;;;;5073324;28;20484;-81
2022/07/17 05:40:56;;;;;;;0.93;0.80;;;16.60;94.20;;;;;;5073734;28;20485;-81
2022/07/17 05:43:23;;;;;;;1.33;1.20;;;16.60;94.10;;;;;;5073435;28;20810;-81
2022/07/17 05:45:49;;;;;;;1.10;1.00;;;16.70;94.00;;;;;;5073709;28;20440;-80
2022/07/17 05:48:16;;;;;;;0.77;0.77;;;16.80;93.80;;;;;;5073364;28;20536;-81
2022/07/17 05:50:43;;;;;;;1.47;1.00;;;16.80;93.80;;;;;;5073674;28;20444;-81
2022/07/17 05:53:09;;;;;;;3.53;1.27;;;16.90;93.80;;;;;;5073687;28;20451;-81
2022/07/17 05:55:38;;;;;;;3.20;1.17;;;17.00;93.60;;;;;;5073624;28;20457;-80
2022/07/17 05:58:04;;;;;;;2.73;1.23;;;17.10;93.30;;;;;;5073517;28;20469;-81
2022/07/17 06:00:31;;;;;;;2.10;1.50;;;17.20;93.10;;;;;;5073163;28;20457;-81
2022/07/17 06:02:58;;;;;;;1.00;0.80;;;17.40;93.00;;;;;;5073555;28;20801;-81
2022/07/17 06:05:26;;;;;;;1.00;0.90;;;17.50;92.90;;;;;;5073205;28;20951;-80
2022/07/17 06:07:53;;;;;;;0.80;0.80;;;17.60;92.70;;;;;;5073392;28;20473;-81
2022/07/17 06:10:20;;;;;;;4.43;1.30;;;17.70;92.40;;;;;;5073118;28;20459;-81
2022/07/17 06:12:49;;;;;;;0.70;0.70;;;17.90;91.70;;;;;;5072137;28;20448;-81
2022/07/17 06:15:16;;;;;;;0.73;0.70;;;18.10;91.40;;;;;;5073050;28;20912;-81
2022/07/17 06:17:43;;;;;;;0.80;0.80;;;18.20;91.40;;;;;;5073035;28;20464;-81
2022/07/17 06:20:11;;;;;;;0.60;0.60;;;18.30;91.30;;;;;;5073361;28;20454;-81
2022/07/17 06:22:37;;;;;;;0.80;0.60;;;18.50;91.40;;;;;;5073257;28;20848;-81
2022/07/17 06:25:05;;;;;;;0.97;0.90;;;18.70;91.10;;;;;;5074110;28;20538;-81
2022/07/17 06:27:32;;;;;;;0.60;0.60;;;18.90;90.60;;;;;;5072938;28;20437;-81
2022/07/17 06:30:00;;;;;;;1.07;0.70;;;19.00;90.10;;;;;;5073251;28;20449;-81
2022/07/17 06:32:27;;;;;;;2.10;1.10;;;19.30;90.00;;;;;;5073247;28;20447;-81
2022/07/17 06:34:53;;;;;;;2.93;1.00;;;19.50;89.50;;;;;;5072893;28;20448;-81
2022/07/17 06:37:20;;;;;;;1.00;0.90;;;19.70;88.10;;;;;;5072837;28;20476;-81
2022/07/17 06:39:47;;;;;;;1.00;0.80;;;19.90;87.50;;;;;;5073611;28;20791;-81
2022/07/17 06:42:14;;;;;;;2.30;0.90;;;20.10;87.10;;;;;;5073095;28;20487;-81
2022/07/17 06:44:40;;;;;;;1.00;0.90;;;20.20;85.30;;;;;;5072797;28;20460;-80
2022/07/17 06:47:08;;;;;;;2.90;1.37;;;20.30;85.80;;;;;;5073160;28;20518;-81
2022/07/17 06:49:35;;;;;;;1.10;1.00;;;20.50;84.70;;;;;;5073057;28;20471;-81
2022/07/17 06:52:02;;;;;;;0.80;0.80;;;20.80;83.20;;;;;;5072710;28;20955;-81
2022/07/17 06:54:29;;;;;;;1.13;1.00;;;21.00;82.90;;;;;;5073373;28;20420;-80
2022/07/17 06:56:55;;;;;;;2.40;1.17;;;21.20;82.10;;;;;;5073024;28;20432;-81
2022/07/17 06:59:22;;;;;;;0.90;0.80;;;21.30;81.40;;;;;;5072947;28;20472;-80
2022/07/17 07:01:49;;;;;;;1.00;1.00;;;21.50;81.00;;;;;;5072804;28;20476;-81
2022/07/17 07:04:17;;;;;;;0.80;0.80;;;21.70;79.00;;;;;;5072912;28;20456;-81
2022/07/17 07:06:44;;;;;;;1.40;1.30;;;21.80;78.50;;;;;;5072913;28;20455;-81
2022/07/17 07:09:12;;;;;;;1.00;0.90;;;21.90;79.80;;;;;;5072810;28;20468;-81
2022/07/17 07:11:39;;;;;;;0.70;0.63;;;21.90;79.90;;;;;;5072856;28;20436;-81
2022/07/17 07:14:06;;;;;;;3.63;1.50;;;22.10;79.20;;;;;;5072518;28;20456;-81
2022/07/17 07:16:33;;;;;;;1.00;0.90;;;22.20;79.30;;;;;;5072792;28;20209;-81
2022/07/17 07:19:00;;;;;;;1.67;0.90;;;22.30;78.90;;;;;;5072699;28;20479;-81
2022/07/17 07:21:28;;;;;;;1.37;1.13;;;22.50;77.20;;;;;;5072729;28;20218;-81
2022/07/17 07:23:56;;;;;;;0.70;0.70;;;22.60;77.50;;;;;;5074516;28;20448;-81
2022/07/17 07:26:24;;;;;;;1.17;1.07;;;22.70;76.50;;;;;;5076968;28;20432;-81
2022/07/17 07:28:51;;;;;;;1.03;0.90;;;22.80;76.10;;;;;;5076298;28;20464;-80
2022/07/17 07:31:18;;;;;;;1.03;1.00;;;22.90;75.60;;;;;;5076300;28;20204;-81
2022/07/17 07:33:45;;;;;;;1.00;0.80;;;23.10;73.90;;;;;;5076257;28;20292;-81
2022/07/17 07:36:12;;;;;;;1.20;1.10;;;23.20;74.00;;;;;;5076206;28;20198;-81
2022/07/17 07:38:40;;;;;;;1.08;0.98;;;23.10;73.60;;;;;;5075659;28;20237;-81
2022/07/17 07:41:07;;;;;;;1.37;1.17;;;23.10;74.30;;;;;;5075790;28;20669;-81
2022/07/17 07:43:33;;;;;;;1.17;1.00;;;23.20;74.70;;;;;;5075786;28;20209;-81
2022/07/17 07:46:00;;;;;;;1.60;1.08;;;23.50;74.50;;;;;;5075791;28;20233;-80
2022/07/17 07:48:27;;;;;;;1.27;0.82;;;23.70;73.10;;;;;;5075954;28;20249;-81
2022/07/17 07:50:54;;;;;;;1.65;1.10;;;24.10;72.50;;;;;;5075958;28;20194;-81
2022/07/17 07:53:22;;;;;;;1.05;1.05;;;24.40;69.90;;;;;;5075925;28;20199;-81
2022/07/17 07:55:50;;;;;;;1.02;0.80;;;24.60;71.10;;;;;;5075571;28;20677;-81
2022/07/17 07:58:18;;;;;;;1.45;1.10;;;25.00;69.30;;;;;;5075432;28;20717;-80
2022/07/17 08:00:45;;;;;;;0.82;0.80;;;25.20;68.60;;;;;;5075781;28;20292;-79
2022/07/17 08:03:13;;;;;;;1.20;1.05;;;25.30;68.50;;;;;;5075675;28;20226;-80
2022/07/17 08:05:39;;;;;;;0.82;0.82;;;25.50;68.50;;;;;;5075728;28;20206;-80
2022/07/17 08:08:07;;;;;;;0.80;0.80;;;25.60;66.60;;;;;;5075636;28;20229;-80
2022/07/17 08:10:34;;;;;;;0.90;0.90;;;25.80;67.00;;;;;;5075607;28;20202;-80
2022/07/17 08:13:02;;;;;;;0.98;0.98;;;25.90;65.60;;;;;;5075526;28;20202;-80
2022/07/17 08:15:29;;;;;;;1.23;1.13;;;25.90;66.00;;;;;;5075275;28;20205;-81
2022/07/17 08:17:55;;;;;;;0.60;0.60;;;26.00;64.90;;;;;;5075081;28;20712;-80
2022/07/17 08:20:22;;;;;;;1.10;1.00;;;26.20;63.90;;;;;;5075422;28;20210;-80
2022/07/17 08:22:51;;;;;;;0.93;0.80;;;26.20;63.30;;;;;;5074996;28;20218;-80
2022/07/17 08:25:17;;;;;;;1.10;1.10;;;26.30;63.00;;;;;;5075012;28;20241;-80
2022/07/17 08:27:45;;;;;;;1.20;1.13;;;26.30;62.30;;;;;;5075178;28;20218;-80
2022/07/17 08:30:15;;;;;;;0.95;0.93;;;26.20;61.90;;;;;;5074929;28;20674;-81
2022/07/17 08:32:42;;;;;;;3.17;0.95;;;26.10;62.30;;;;;;5075103;28;20194;-80
2022/07/17 08:35:09;;;;;;;0.70;0.70;;;25.90;62.50;;;;;;5074012;28;20205;-80
2022/07/17 08:37:47;;;;;;;1.13;0.77;;;26.00;62.50;;;;;;5074669;28;20237;-81
2022/07/17 08:40:18;;;;;;;0.90;0.70;;;26.10;63.20;;;;;;5074751;28;20668;-81
2022/07/17 08:42:45;;;;;;;1.23;1.05;;;26.20;61.60;;;;;;5074761;28;20218;-80
2022/07/17 08:45:14;;;;;;;0.85;0.85;;;26.30;61.70;;;;;;5074915;28;20214;-80
2022/07/17 08:47:41;;;;;;;0.98;0.98;;;26.30;62.40;;;;;;5074741;28;20221;-81
2022/07/17 08:50:09;;;;;;;1.48;1.00;;;26.60;61.70;;;;;;5074792;28;20206;-80
2022/07/17 08:52:38;;;;;;;0.90;0.90;;;26.70;60.80;;;;;;5074735;28;20206;-81
2022/07/17 08:55:08;;;;;;;0.90;0.75;;;26.80;61.20;;;;;;5074714;28;20202;-81
2022/07/17 08:57:38;;;;;;;0.77;0.77;;;27.10;58.60;;;;;;5074637;28;20222;-81
2022/07/17 09:00:05;;;;;;;0.70;0.70;;;27.30;58.30;;;;;;5075038;28;20206;-81
2022/07/17 09:02:35;;;;;;;1.08;0.80;;;27.40;57.40;;;;;;5074169;28;20221;-81
2022/07/17 09:05:02;;;;;;;0.70;0.70;;;27.30;58.20;;;;;;5074580;28;20273;-81
2022/07/17 09:07:30;;;;;;;0.75;0.75;;;27.30;58.10;;;;;;5074435;28;20208;-81
2022/07/17 09:09:57;;;;;;;0.70;0.70;;;27.50;56.40;;;;;;5074365;28;20206;-81
2022/07/17 09:12:26;;;;;;;1.13;0.90;;;27.70;56.00;;;;;;5074322;28;20206;-80
2022/07/17 09:14:53;;;;;;;0.82;0.82;;;27.70;56.00;;;;;;5074364;28;20183;-79
2022/07/17 09:17:20;;;;;;;2.20;1.20;;;27.70;55.70;;;;;;5073916;28;20206;-81
2022/07/17 09:19:48;;;;;;;1.10;1.10;;;27.70;56.20;;;;;;5073964;28;20665;-81
2022/07/17 09:22:17;;;;;;;1.17;0.95;;;27.60;55.60;;;;;;5073769;28;20601;-81
2022/07/17 09:24:48;;;;;;;0.82;0.77;;;27.30;57.20;;;;;;5074200;28;20232;-81
2022/07/17 09:27:30;;;;;;;0.60;0.60;;;27.30;57.50;;;;;;5074017;28;20194;-81
2022/07/17 09:29:59;;;;;;;1.08;0.98;;;27.30;56.50;;;;;;5073730;28;20656;-81
2022/07/17 09:32:28;;;;;;;1.65;1.00;;;27.10;56.80;;;;;;5073689;28;20194;-81
2022/07/17 09:34:58;;;;;;;1.20;1.15;;;27.10;56.50;;;;;;5073922;28;20205;-81
2022/07/17 09:37:26;;;;;;;0.90;0.90;;;27.10;56.40;;;;;;5073752;28;20238;-81
2022/07/17 09:39:54;;;;;;;1.25;1.15;;;27.10;55.50;;;;;;5073633;28;20237;-81
2022/07/17 09:42:25;;;;;;;0.70;0.70;;;27.00;55.50;;;;;;5074161;28;20287;-81
2022/07/17 09:45:00;;;;;;;1.00;0.85;;;27.00;56.40;;;;;;5073871;28;20300;-78
2022/07/17 09:47:28;;;;;;;0.85;0.85;;;27.10;54.70;;;;;;5073248;28;20193;-81
2022/07/17 09:49:58;;;;;;;1.15;0.88;;;27.10;55.00;;;;;;5073462;28;20648;-81
2022/07/17 09:52:27;;;;;;;1.05;0.93;;;27.10;54.80;;;;;;5073648;28;20198;-81
2022/07/17 09:54:55;;;;;;;0.80;0.80;;;27.10;55.10;;;;;;5073660;28;20210;-81
2022/07/17 09:57:24;;;;;;;1.00;0.90;;;27.40;55.20;;;;;;5073522;28;20209;-81
2022/07/17 09:59:51;;;;;;;1.90;1.48;;;27.40;54.90;;;;;;5073570;28;20202;-81
2022/07/17 10:02:20;;;;;;;1.20;1.10;;;27.30;55.00;;;;;;5073499;28;20218;-81
2022/07/17 10:04:47;;;;;;;0.90;0.80;;;27.00;54.90;;;;;;5073205;28;20198;-81
2022/07/17 10:07:16;;;;;;;1.10;1.00;;;27.00;54.30;;;;;;5073502;28;20213;-81
2022/07/17 10:09:42;;;;;;;0.95;0.80;;;27.10;54.50;;;;;;5073452;28;20198;-80
2022/07/17 10:12:10;;;;;;;0.95;0.70;;;27.00;54.10;;;;;;5073461;28;20224;-82
2022/07/17 10:14:38;;;;;;;0.77;0.77;;;27.00;54.00;;;;;;5074144;28;20217;-81
2022/07/17 10:17:09;;;;;;;0.88;0.70;;;27.10;53.70;;;;;;5073419;28;20208;-81
2022/07/17 10:19:47;;;;;;;1.00;1.00;;;27.20;54.60;;;;;;5072885;28;20587;-81
2022/07/17 10:22:15;;;;;;;1.10;1.00;;;27.30;55.00;;;;;;5073309;28;20237;-81
2022/07/17 10:24:47;;;;;;;1.88;0.80;;;27.40;54.50;;;;;;5073025;28;20686;-81
2022/07/17 10:27:19;;;;;;;1.25;1.10;;;27.50;55.80;;;;;;5073235;28;20193;-81
2022/07/17 10:29:46;;;;;;;1.00;1.00;;;27.60;55.20;;;;;;5073305;28;20186;-81
2022/07/17 10:32:16;;;;;;;0.82;0.77;;;27.70;52.90;;;;;;5073262;28;20208;-81
2022/07/17 10:34:44;;;;;;;0.90;0.85;;;27.70;52.10;;;;;;5073524;28;20198;-81
2022/07/17 10:37:25;;;;;;;2.25;0.80;;;27.60;51.50;;;;;;5072984;28;20233;-81
2022/07/17 10:40:07;;;;;;;0.65;0.65;;;27.40;52.50;;;;;;5073220;28;20189;-81
2022/07/17 10:42:42;;;;;;;0.77;0.77;;;27.50;51.70;;;;;;5072886;28;20203;-81
2022/07/17 10:45:10;;;;;;;0.70;0.70;;;27.50;51.30;;;;;;5073070;28;20206;-81
2022/07/17 10:47:51;;;;;;;0.88;0.80;;;27.50;52.00;;;;;;5073021;28;20222;-81
2022/07/17 10:50:20;;;;;;;0.70;0.70;;;27.50;51.40;;;;;;5073121;28;20196;-81
2022/07/17 10:53:03;;;;;;;0.80;0.80;;;27.50;51.30;;;;;;5072998;28;20208;-81
2022/07/17 10:55:30;;;;;;;0.80;0.77;;;27.50;51.30;;;;;;5073052;28;20201;-81
2022/07/17 10:57:57;;;;;;;0.75;0.75;;;27.40;52.20;;;;;;5073517;28;20229;-81
2022/07/17 11:00:25;;;;;;;0.68;0.68;;;27.30;50.90;;;;;;5076928;28;20206;-81
2022/07/17 11:02:52;;;;;;;0.98;0.77;;;27.40;50.40;;;;;;5076766;28;20218;-81
2022/07/17 11:05:19;;;;;;;1.05;0.80;;;27.70;50.40;;;;;;5076498;28;20669;-81
2022/07/17 11:07:56;;;;;;;0.60;0.60;;;28.10;49.20;;;;;;5076680;28;20272;-81
2022/07/17 11:10:26;;;;;;;0.60;0.60;;;29.00;45.30;;;;;;5076404;28;20202;-80
2022/07/17 11:12:53;;;;;;;0.60;0.60;;;29.50;46.00;;;;;;5076646;28;20198;-81
2022/07/17 11:15:20;;;;;;;0.75;0.75;;;29.80;45.60;;;;;;5076660;28;20204;-81
2022/07/17 11:17:49;;;;;;;1.08;0.98;;;29.80;44.90;;;;;;5077143;28;20248;-80
2022/07/17 11:20:18;;;;;;;1.58;0.70;;;29.40;45.70;;;;;;5076529;28;20207;-80
2022/07/17 11:22:45;;;;;;;0.75;0.75;;;29.10;46.50;;;;;;5076383;28;20226;-81
2022/07/17 11:25:12;;;;;;;0.82;0.82;;;28.80;47.40;;;;;;5076487;28;20202;-81
2022/07/17 11:27:41;;;;;;;1.45;0.90;;;28.50;47.70;;;;;;5076306;28;20595;-80
2022/07/17 11:30:15;;;;;;;0.60;0.60;;;28.10;48.60;;;;;;5076078;28;20205;-80
2022/07/17 11:32:42;;;;;;;0.80;0.80;;;27.90;49.30;;;;;;5076353;28;20197;-81
2022/07/17 11:35:17;;;;;;;0.70;0.70;;;27.90;48.50;;;;;;5076291;28;20210;-80
2022/07/17 11:37:44;;;;;;;0.80;0.80;;;27.90;48.80;;;;;;5075763;28;20233;-80
2022/07/17 11:40:11;;;;;;;0.80;0.80;;;27.80;48.80;;;;;;5075886;28;20669;-81
2022/07/17 11:42:38;;;;;;;1.17;1.00;;;27.70;49.50;;;;;;5076050;28;20229;-82
2022/07/17 11:45:08;;;;;;;0.70;0.70;;;27.70;48.70;;;;;;5076130;28;20210;-81
2022/07/17 11:47:36;;;;;;;0.60;0.60;;;27.90;47.00;;;;;;5075743;28;20705;-80
2022/07/17 11:50:08;;;;;;;0.82;0.82;;;27.80;47.70;;;;;;5076039;28;20205;-80
2022/07/17 11:52:41;;;;;;;0.70;0.60;;;27.70;47.50;;;;;;5075683;28;20206;-81
2022/07/17 11:55:09;;;;;;;0.65;0.65;;;27.70;45.90;;;;;;5075973;28;20187;-80
2022/07/17 11:57:44;;;;;;;0.63;0.63;;;27.60;44.80;;;;;;5075795;28;20217;-81
2022/07/17 12:00:15;;;;;;;0.73;0.73;;;27.50;46.10;;;;;;5075894;28;20190;-80
2022/07/17 12:02:42;;;;;;;0.55;0.55;;;27.40;47.20;;;;;;5075781;28;20183;-80
2022/07/17 12:05:09;;;;;;;0.93;0.93;;;27.40;49.40;;;;;;5076246;28;20198;-80
2022/07/17 12:07:41;;;;;;;1.70;0.60;;;27.40;48.30;;;;;;5075640;28;20222;-80
2022/07/17 12:10:13;;;;;;;0.82;0.82;;;27.40;48.60;;;;;;5075237;28;20206;-80
2022/07/17 12:12:51;;;;;;;0.80;0.80;;;27.50;49.20;;;;;;5075635;28;20226;-81
2022/07/17 12:15:19;;;;;;;0.73;0.70;;;27.60;47.60;;;;;;5075593;28;20190;-81
2022/07/17 12:17:46;;;;;;;0.93;0.80;;;27.60;47.20;;;;;;5075433;28;20228;-81
2022/07/17 12:20:13;;;;;;;0.95;0.95;;;27.60;47.30;;;;;;5075674;28;20251;-80
2022/07/17 12:22:45;;;;;;;0.88;0.70;;;27.40;47.40;;;;;;5075075;28;20666;-80
2022/07/17 12:25:23;;;;;;;0.65;0.65;;;27.40;46.90;;;;;;5075364;28;20566;-81
2022/07/17 12:27:49;;;;;;;0.63;0.63;;;27.30;46.70;;;;;;5075313;28;20740;-81
2022/07/17 12:30:16;;;;;;;0.60;0.60;;;27.20;47.20;;;;;;5074953;28;20692;-81
2022/07/17 12:32:44;;;;;;;0.77;0.77;;;27.20;46.70;;;;;;5075236;28;20205;-80
2022/07/17 12:35:11;;;;;;;0.70;0.70;;;27.40;46.00;;;;;;5074851;28;20645;-80
2022/07/17 12:37:38;;;;;;;0.70;0.70;;;27.30;46.70;;;;;;5074738;28;20237;-80
2022/07/17 12:40:06;;;;;;;0.63;0.63;;;27.30;47.20;;;;;;5075086;28;20224;-80
2022/07/17 12:42:33;;;;;;;0.80;0.60;;;27.30;45.30;;;;;;5074973;28;20202;-81
2022/07/17 12:44:59;;;;;;;0.70;0.70;;;27.40;45.40;;;;;;5074649;28;20222;-81
2022/07/17 12:47:26;;;;;;;0.75;0.75;;;27.40;44.10;;;;;;5074871;28;20205;-80
2022/07/17 12:49:54;;;;;;;0.90;0.80;;;27.40;44.60;;;;;;5074911;28;20205;-81
2022/07/17 12:52:21;;;;;;;0.77;0.70;;;27.30;45.20;;;;;;5074501;28;20684;-81